sensor_id;sensor_type;location;lat;lon;timestamp;pressure;altitude;pressure_sealevel;temperature;humidity
65359;BME280;52491;45.900;6.346;2023-02-04T00:00:05;95168.44;;;23.73;21.16
65359;BME280;52491;45.900;6.346;2023-02-04T00:02:32;95167.84;;;23.71;21.15
65359;BME280;52491;45.900;6.346;2023-02-04T00:04:57;95170.50;;;23.71;21.07
65359;BME280;52491;45.900;6.346;2023-02-04T00:07:23;95160.03;;;23.69;21.14
65359;BME280;52491;45.900;6.346;2023-02-04T00:09:49;95165.34;;;23.69;21.05
65359;BME280;52491;45.900;6.346;2023-02-04T00:12:15;95168.03;;;23.69;21.24
65359;BME280;52491;45.900;6.346;2023-02-04T00:14:40;95169.88;;;23.68;21.06
65359;BME280;52491;45.900;6.346;2023-02-04T00:17:06;95164.78;;;23.67;21.04
65359;BME280;52491;45.900;6.346;2023-02-04T00:19:32;95164.78;;;23.67;21.04
65359;BME280;52491;45.900;6.346;2023-02-04T00:21:58;95166.88;;;23.65;21.17
65359;BME280;52491;45.900;6.346;2023-02-04T00:24:23;95169.75;;;23.63;21.23
65359;BME280;52491;45.900;6.346;2023-02-04T00:26:49;95167.06;;;23.63;21.12
65359;BME280;52491;45.900;6.346;2023-02-04T00:29:15;95167.31;;;23.62;21.04
65359;BME280;52491;45.900;6.346;2023-02-04T00:31:40;95160.34;;;23.61;21.22
65359;BME280;52491;45.900;6.346;2023-02-04T00:34:06;95158.75;;;23.60;20.93
65359;BME280;52491;45.900;6.346;2023-02-04T00:36:31;95166.97;;;23.58;21.18
65359;BME280;52491;45.900;6.346;2023-02-04T00:38:57;95161.66;;;23.58;20.96
65359;BME280;52491;45.900;6.346;2023-02-04T00:41:22;95165.31;;;23.57;21.02
65359;BME280;52491;45.900;6.346;2023-02-04T00:43:48;95160.00;;;23.57;20.88
65359;BME280;52491;45.900;6.346;2023-02-04T00:46:13;95156.53;;;23.57;21.13
65359;BME280;52491;45.900;6.346;2023-02-04T00:48:39;95158.38;;;23.56;20.99
65359;BME280;52491;45.900;6.346;2023-02-04T00:51:05;95152.25;;;23.56;21.03
65359;BME280;52491;45.900;6.346;2023-02-04T00:53:30;95158.59;;;23.55;20.77
65359;BME280;52491;45.900;6.346;2023-02-04T00:55:56;95159.19;;;23.57;20.82
65359;BME280;52491;45.900;6.346;2023-02-04T00:58:21;95162.06;;;23.55;20.71
65359;BME280;52491;45.900;6.346;2023-02-04T01:00:47;95161.25;;;23.55;20.95
65359;BME280;52491;45.900;6.346;2023-02-04T01:03:12;95163.91;;;23.55;20.92
65359;BME280;52491;45.900;6.346;2023-02-04T01:05:38;95166.59;;;23.55;20.86
65359;BME280;52491;45.900;6.346;2023-02-04T01:08:04;95168.69;;;23.53;20.89
65359;BME280;52491;45.900;6.346;2023-02-04T01:10:29;95159.66;;;23.54;20.94
65359;BME280;52491;45.900;6.346;2023-02-04T01:12:55;95163.34;;;23.53;21.01
65359;BME280;52491;45.900;6.346;2023-02-04T01:15:20;95158.03;;;23.53;21.03
65359;BME280;52491;45.900;6.346;2023-02-04T01:17:47;95156.19;;;23.53;20.85
65359;BME280;52491;45.900;6.346;2023-02-04T01:20:13;95155.13;;;23.54;20.81
65359;BME280;52491;45.900;6.346;2023-02-04T01:22:39;95151.66;;;23.54;20.88
65359;BME280;52491;45.900;6.346;2023-02-04T01:25:05;95157.00;;;23.54;20.59
65359;BME280;52491;45.900;6.346;2023-02-04T01:27:30;95160.44;;;23.54;20.77
65359;BME280;52491;45.900;6.346;2023-02-04T01:29:56;95152.72;;;23.53;20.80
65359;BME280;52491;45.900;6.346;2023-02-04T01:32:22;95151.41;;;23.55;20.88
65359;BME280;52491;45.900;6.346;2023-02-04T01:34:47;95147.16;;;23.54;20.68
65359;BME280;52491;45.900;6.346;2023-02-04T01:37:13;95141.00;;;23.54;20.73
65359;BME280;52491;45.900;6.346;2023-02-04T01:39:39;95137.31;;;23.55;20.66
65359;BME280;52491;45.900;6.346;2023-02-04T01:42:04;95125.03;;;23.54;20.69
65359;BME280;52491;45.900;6.346;2023-02-04T01:44:30;95123.19;;;23.54;20.66
65359;BME280;52491;45.900;6.346;2023-02-04T01:46:56;95129.31;;;23.55;20.71
65359;BME280;52491;45.900;6.346;2023-02-04T01:49:21;95124.25;;;23.53;20.70
65359;BME280;52491;45.900;6.346;2023-02-04T01:51:47;95126.09;;;23.53;20.65
65359;BME280;52491;45.900;6.346;2023-02-04T01:54:14;95116.81;;;23.55;20.69
65359;BME280;52491;45.900;6.346;2023-02-04T01:56:45;95119.06;;;23.58;20.55
65359;BME280;52491;45.900;6.346;2023-02-04T01:59:13;95120.88;;;23.58;20.60
65359;BME280;52491;45.900;6.346;2023-02-04T02:01:48;95126.19;;;23.58;20.46
65359;BME280;52491;45.900;6.346;2023-02-04T02:04:18;95121.94;;;23.57;20.71
65359;BME280;52491;45.900;6.346;2023-02-04T02:06:53;95115.56;;;23.58;20.47
65359;BME280;52491;45.900;6.346;2023-02-04T02:09:19;95120.31;;;23.56;20.58
65359;BME280;52491;45.900;6.346;2023-02-04T02:11:45;95110.47;;;23.56;20.67
65359;BME280;52491;45.900;6.346;2023-02-04T02:14:11;95115.00;;;23.56;20.49
65359;BME280;52491;45.900;6.346;2023-02-04T02:16:37;95103.28;;;23.57;20.54
65359;BME280;52491;45.900;6.346;2023-02-04T02:19:04;95105.94;;;23.57;20.38
65359;BME280;52491;45.900;6.346;2023-02-04T02:21:52;95107.56;;;23.58;20.41
65359;BME280;52491;45.900;6.346;2023-02-04T02:24:31;95100.63;;;23.57;20.44
65359;BME280;52491;45.900;6.346;2023-02-04T02:26:59;95099.03;;;23.56;20.46
65359;BME280;52491;45.900;6.346;2023-02-04T02:29:26;95098.44;;;23.54;20.38
65359;BME280;52491;45.900;6.346;2023-02-04T02:31:53;95099.03;;;23.56;20.44
65359;BME280;52491;45.900;6.346;2023-02-04T02:34:22;95097.38;;;23.55;20.47
65359;BME280;52491;45.900;6.346;2023-02-04T02:36:47;95092.84;;;23.55;20.33
65359;BME280;52491;45.900;6.346;2023-02-04T02:39:13;95095.53;;;23.55;20.22
65359;BME280;52491;45.900;6.346;2023-02-04T02:41:39;95099.03;;;23.56;20.33
65359;BME280;52491;45.900;6.346;2023-02-04T02:44:05;95089.19;;;23.56;20.33
65359;BME280;52491;45.900;6.346;2023-02-04T02:46:31;95095.31;;;23.57;20.23
65359;BME280;52491;45.900;6.346;2023-02-04T02:48:57;95089.97;;;23.57;20.39
65359;BME280;52491;45.900;6.346;2023-02-04T02:51:23;95099.56;;;23.58;20.25
65359;BME280;52491;45.900;6.346;2023-02-04T02:53:49;95086.28;;;23.58;20.24
65359;BME280;52491;45.900;6.346;2023-02-04T02:56:16;95075.41;;;23.59;20.12
65359;BME280;52491;45.900;6.346;2023-02-04T02:58:42;95074.59;;;23.59;20.15
65359;BME280;52491;45.900;6.346;2023-02-04T03:01:08;95069.28;;;23.59;20.34
65359;BME280;52491;45.900;6.346;2023-02-04T03:03:44;95072.75;;;23.59;20.18
65359;BME280;52491;45.900;6.346;2023-02-04T03:06:19;95085.25;;;23.59;20.12
65359;BME280;52491;45.900;6.346;2023-02-04T03:08:49;95080.94;;;23.58;20.10
65359;BME280;52491;45.900;6.346;2023-02-04T03:11:15;95075.63;;;23.58;20.28
65359;BME280;52491;45.900;6.346;2023-02-04T03:13:41;95079.34;;;23.57;20.27
65359;BME280;52491;45.900;6.346;2023-02-04T03:16:07;95072.97;;;23.58;20.07
65359;BME280;52491;45.900;6.346;2023-02-04T03:18:34;95076.47;;;23.58;20.15
65359;BME280;52491;45.900;6.346;2023-02-04T03:21:01;95081.78;;;23.58;20.22
65359;BME280;52491;45.900;6.346;2023-02-04T03:23:29;95083.84;;;23.56;20.08
65359;BME280;52491;45.900;6.346;2023-02-04T03:25:57;95086.50;;;23.56;20.02
65359;BME280;52491;45.900;6.346;2023-02-04T03:28:23;95084.66;;;23.57;20.07
65359;BME280;52491;45.900;6.346;2023-02-04T03:30:48;95074.81;;;23.57;20.04
65359;BME280;52491;45.900;6.346;2023-02-04T03:33:27;95085.25;;;23.59;19.99
65359;BME280;52491;45.900;6.346;2023-02-04T03:35:58;95074.81;;;23.57;19.69
65359;BME280;52491;45.900;6.346;2023-02-04T03:38:24;95074.00;;;23.57;19.94
65359;BME280;52491;45.900;6.346;2023-02-04T03:40:50;95083.84;;;23.56;20.12
65359;BME280;52491;45.900;6.346;2023-02-04T03:43:16;95082.00;;;23.57;20.10
65359;BME280;52491;45.900;6.346;2023-02-04T03:45:41;95088.94;;;23.58;20.04
65359;BME280;52491;45.900;6.346;2023-02-04T03:48:07;95082.81;;;23.57;20.07
65359;BME280;52491;45.900;6.346;2023-02-04T03:50:32;95083.03;;;23.56;20.10
65359;BME280;52491;45.900;6.346;2023-02-04T03:52:58;95080.38;;;23.56;20.30
65359;BME280;52491;45.900;6.346;2023-02-04T03:55:24;95084.66;;;23.57;19.90
65359;BME280;52491;45.900;6.346;2023-02-04T03:57:51;95086.28;;;23.58;20.02
65359;BME280;52491;45.900;6.346;2023-02-04T04:00:18;95087.09;;;23.58;20.00
65359;BME280;52491;45.900;6.346;2023-02-04T04:02:43;95086.06;;;23.59;19.67
65359;BME280;52491;45.900;6.346;2023-02-04T04:05:10;95086.88;;;23.60;19.94
65359;BME280;52491;45.900;6.346;2023-02-04T04:07:35;95088.72;;;23.59;20.10
65359;BME280;52491;45.900;6.346;2023-02-04T04:10:01;95072.75;;;23.59;19.91
65359;BME280;52491;45.900;6.346;2023-02-04T04:12:27;95078.88;;;23.60;19.98
65359;BME280;52491;45.900;6.346;2023-02-04T04:14:52;95081.53;;;23.60;19.90
65359;BME280;52491;45.900;6.346;2023-02-04T04:17:18;95073.56;;;23.60;19.85
65359;BME280;52491;45.900;6.346;2023-02-04T04:19:43;95069.84;;;23.61;19.96
65359;BME280;52491;45.900;6.346;2023-02-04T04:22:09;95053.06;;;23.60;19.85
65359;BME280;52491;45.900;6.346;2023-02-04T04:24:35;95056.78;;;23.59;19.88
65359;BME280;52491;45.900;6.346;2023-02-04T04:27:01;95047.72;;;23.60;19.90
65359;BME280;52491;45.900;6.346;2023-02-04T04:29:26;95065.34;;;23.61;19.88
65359;BME280;52491;45.900;6.346;2023-02-04T04:31:52;95052.84;;;23.62;19.79
65359;BME280;52491;45.900;6.346;2023-02-04T04:34:17;95049.38;;;23.61;19.78
65359;BME280;52491;45.900;6.346;2023-02-04T04:36:43;95050.19;;;23.62;19.90
65359;BME280;52491;45.900;6.346;2023-02-04T04:39:09;95046.47;;;23.63;19.88
65359;BME280;52491;45.900;6.346;2023-02-04T04:41:34;95053.66;;;23.62;19.66
65359;BME280;52491;45.900;6.346;2023-02-04T04:44:00;95057.94;;;23.63;19.87
65359;BME280;52491;45.900;6.346;2023-02-04T04:46:25;95056.09;;;23.64;19.87
65359;BME280;52491;45.900;6.346;2023-02-04T04:48:51;95063.25;;;23.63;19.87
65359;BME280;52491;45.900;6.346;2023-02-04T04:51:17;95067.56;;;23.64;19.76
65359;BME280;52491;45.900;6.346;2023-02-04T04:53:42;95062.22;;;23.64;19.98
65359;BME280;52491;45.900;6.346;2023-02-04T04:56:08;95050.53;;;23.65;19.92
65359;BME280;52491;45.900;6.346;2023-02-04T04:58:33;95055.06;;;23.65;19.82
65359;BME280;52491;45.900;6.346;2023-02-04T05:00:59;95062.22;;;23.64;19.75
65359;BME280;52491;45.900;6.346;2023-02-04T05:03:25;95063.84;;;23.65;19.88
65359;BME280;52491;45.900;6.346;2023-02-04T05:05:50;95060.13;;;23.66;19.82
65359;BME280;52491;45.900;6.346;2023-02-04T05:08:16;95062.78;;;23.66;19.78
65359;BME280;52491;45.900;6.346;2023-02-04T05:10:43;95059.91;;;23.68;19.88
65359;BME280;52491;45.900;6.346;2023-02-04T05:13:09;95066.03;;;23.68;19.71
65359;BME280;52491;45.900;6.346;2023-02-04T05:15:35;95058.06;;;23.68;19.87
65359;BME280;52491;45.900;6.346;2023-02-04T05:18:01;95060.72;;;23.68;19.86
65359;BME280;52491;45.900;6.346;2023-02-04T05:20:26;95059.91;;;23.68;19.74
65359;BME280;52491;45.900;6.346;2023-02-04T05:22:52;95069.50;;;23.69;19.85
65359;BME280;52491;45.900;6.346;2023-02-04T05:25:21;95064.19;;;23.69;19.89
65359;BME280;52491;45.900;6.346;2023-02-04T05:27:47;95064.19;;;23.69;19.83
65359;BME280;52491;45.900;6.346;2023-02-04T05:30:13;95081.00;;;23.70;19.83
65359;BME280;52491;45.900;6.346;2023-02-04T05:32:39;95079.13;;;23.70;19.91
65359;BME280;52491;45.900;6.346;2023-02-04T05:35:05;95076.69;;;23.68;20.11
65359;BME280;52491;45.900;6.346;2023-02-04T05:37:31;95073.00;;;23.70;19.97
65359;BME280;52491;45.900;6.346;2023-02-04T05:39:57;95075.66;;;23.70;19.92
65359;BME280;52491;45.900;6.346;2023-02-04T05:42:22;95071.16;;;23.70;20.00
65359;BME280;52491;45.900;6.346;2023-02-04T05:44:48;95073.81;;;23.70;19.89
65359;BME280;52491;45.900;6.346;2023-02-04T05:47:14;95064.00;;;23.71;20.13
65359;BME280;52491;45.900;6.346;2023-02-04T05:49:39;95072.00;;;23.71;19.91
65359;BME280;52491;45.900;6.346;2023-02-04T05:52:05;95075.25;;;23.73;19.97
65359;BME280;52491;45.900;6.346;2023-02-04T05:54:31;95075.81;;;23.75;19.93
65359;BME280;52491;45.900;6.346;2023-02-04T05:56:56;95082.97;;;23.74;19.87
65359;BME280;52491;45.900;6.346;2023-02-04T05:59:22;95088.31;;;23.74;20.10
65359;BME280;52491;45.900;6.346;2023-02-04T06:01:48;95082.97;;;23.74;20.12
65359;BME280;52491;45.900;6.346;2023-02-04T06:04:13;95085.19;;;23.77;20.08
65359;BME280;52491;45.900;6.346;2023-02-04T06:06:42;95080.91;;;23.76;20.06
65359;BME280;52491;45.900;6.346;2023-02-04T06:09:09;95091.09;;;23.79;19.94
65359;BME280;52491;45.900;6.346;2023-02-04T06:11:38;95097.47;;;23.78;20.11
65359;BME280;52491;45.900;6.346;2023-02-04T06:14:04;95097.47;;;23.78;20.12
65359;BME280;52491;45.900;6.346;2023-02-04T06:16:30;95099.09;;;23.79;20.20
65359;BME280;52491;45.900;6.346;2023-02-04T06:18:55;95092.16;;;23.78;20.28
65359;BME280;52491;45.900;6.346;2023-02-04T06:21:21;95095.38;;;23.80;20.09
65359;BME280;52491;45.900;6.346;2023-02-04T06:23:46;95102.34;;;23.81;20.12
65359;BME280;52491;45.900;6.346;2023-02-04T06:26:13;95112.19;;;23.81;20.18
65359;BME280;52491;45.900;6.346;2023-02-04T06:28:39;95098.88;;;23.81;20.29
65359;BME280;52491;45.900;6.346;2023-02-04T06:31:05;95103.38;;;23.80;20.30
65359;BME280;52491;45.900;6.346;2023-02-04T06:33:30;95106.88;;;23.81;20.16
65359;BME280;52491;45.900;6.346;2023-02-04T06:35:56;95107.44;;;23.83;20.29
65359;BME280;52491;45.900;6.346;2023-02-04T06:38:22;95104.53;;;23.84;20.10
65359;BME280;52491;45.900;6.346;2023-02-04T06:40:47;95104.09;;;23.87;20.34
65359;BME280;52491;45.900;6.346;2023-02-04T06:43:15;95107.09;;;23.91;20.11
65359;BME280;52491;45.900;6.346;2023-02-04T06:45:41;95124.72;;;23.92;20.29
65359;BME280;52491;45.900;6.346;2023-02-04T06:48:07;95121.00;;;23.93;20.41
65359;BME280;52491;45.900;6.346;2023-02-04T06:50:32;95118.56;;;23.92;20.40
65359;BME280;52491;45.900;6.346;2023-02-04T06:52:58;95113.59;;;23.95;20.41
65359;BME280;52491;45.900;6.346;2023-02-04T06:55:24;95123.00;;;23.98;20.62
65359;BME280;52491;45.900;6.346;2023-02-04T06:57:50;95122.16;;;23.97;20.49
65359;BME280;52491;45.900;6.346;2023-02-04T07:00:18;95123.00;;;23.98;20.37
65359;BME280;52491;45.900;6.346;2023-02-04T07:02:44;95117.66;;;23.98;20.42
65359;BME280;52491;45.900;6.346;2023-02-04T07:05:10;95125.66;;;23.98;20.35
65359;BME280;52491;45.900;6.346;2023-02-04T07:07:36;95121.94;;;23.99;20.40
65359;BME280;52491;45.900;6.346;2023-02-04T07:10:02;95122.16;;;23.97;20.19
65359;BME280;52491;45.900;6.346;2023-02-04T07:12:28;95121.59;;;23.95;20.36
65359;BME280;52491;45.900;6.346;2023-02-04T07:14:54;95121.81;;;23.94;20.25
65359;BME280;52491;45.900;6.346;2023-02-04T07:17:22;95116.81;;;23.97;20.27
65359;BME280;52491;45.900;6.346;2023-02-04T07:19:48;95123.00;;;23.98;20.42
65359;BME280;52491;45.900;6.346;2023-02-04T07:22:15;95118.69;;;23.97;20.38
65359;BME280;52491;45.900;6.346;2023-02-04T07:24:40;95128.78;;;23.95;20.42
65359;BME280;52491;45.900;6.346;2023-02-04T07:27:06;95138.59;;;23.94;20.50
65359;BME280;52491;45.900;6.346;2023-02-04T07:29:31;95134.09;;;23.95;20.43
65359;BME280;52491;45.900;6.346;2023-02-04T07:31:57;95141.25;;;23.94;20.31
65359;BME280;52491;45.900;6.346;2023-02-04T07:34:23;95139.44;;;23.95;20.39
65359;BME280;52491;45.900;6.346;2023-02-04T07:36:48;95143.13;;;23.94;20.34
65359;BME280;52491;45.900;6.346;2023-02-04T07:39:14;95146.38;;;23.96;20.61
65359;BME280;52491;45.900;6.346;2023-02-04T07:41:40;95146.13;;;23.97;20.60
65359;BME280;52491;45.900;6.346;2023-02-04T07:44:05;95135.47;;;23.97;20.42
65359;BME280;52491;45.900;6.346;2023-02-04T07:46:32;95149.84;;;23.96;20.39
65359;BME280;52491;45.900;6.346;2023-02-04T07:48:58;95150.66;;;23.97;20.89
65359;BME280;52491;45.900;6.346;2023-02-04T07:51:23;95154.94;;;23.98;20.91
65359;BME280;52491;45.900;6.346;2023-02-04T07:53:49;95155.16;;;23.96;20.76
65359;BME280;52491;45.900;6.346;2023-02-04T07:56:15;95151.91;;;23.94;20.94
65359;BME280;52491;45.900;6.346;2023-02-04T07:58:41;95146.84;;;23.93;21.11
65359;BME280;52491;45.900;6.346;2023-02-04T08:01:06;95139.44;;;23.95;20.83
65359;BME280;52491;45.900;6.346;2023-02-04T08:03:32;95139.84;;;23.92;21.04
65359;BME280;52491;45.900;6.346;2023-02-04T08:05:58;95147.84;;;23.92;21.05
65359;BME280;52491;45.900;6.346;2023-02-04T08:08:23;95145.19;;;23.92;21.17
65359;BME280;52491;45.900;6.346;2023-02-04T08:10:49;95147.03;;;23.91;21.14
65359;BME280;52491;45.900;6.346;2023-02-04T08:13:14;95141.50;;;23.93;21.31
65359;BME280;52491;45.900;6.346;2023-02-04T08:15:40;95149.03;;;23.96;21.27
65359;BME280;52491;45.900;6.346;2023-02-04T08:18:06;95149.03;;;23.96;21.41
65359;BME280;52491;45.900;6.346;2023-02-04T08:20:31;95154.38;;;23.96;21.36
65359;BME280;52491;45.900;6.346;2023-02-04T08:22:57;95153.78;;;23.94;21.21
65359;BME280;52491;45.900;6.346;2023-02-04T08:25:23;95156.44;;;23.94;21.04
65359;BME280;52491;45.900;6.346;2023-02-04T08:27:48;95162.81;;;23.93;21.47
65359;BME280;52491;45.900;6.346;2023-02-04T08:30:14;95157.47;;;23.93;21.55
65359;BME280;52491;45.900;6.346;2023-02-04T08:32:40;95149.25;;;23.94;21.52
65359;BME280;52491;45.900;6.346;2023-02-04T08:35:07;95158.06;;;23.95;21.47
65359;BME280;52491;45.900;6.346;2023-02-04T08:37:33;95155.41;;;23.95;21.21
65359;BME280;52491;45.900;6.346;2023-02-04T08:39:59;95149.50;;;23.93;21.21
65359;BME280;52491;45.900;6.346;2023-02-04T08:42:25;95153.63;;;23.88;21.00
65359;BME280;52491;45.900;6.346;2023-02-04T08:44:50;95156.75;;;23.85;20.95
65359;BME280;52491;45.900;6.346;2023-02-04T08:47:16;95161.50;;;23.83;21.18
65359;BME280;52491;45.900;6.346;2023-02-04T08:49:42;95153.75;;;23.82;21.25
65359;BME280;52491;45.900;6.346;2023-02-04T08:52:07;95158.81;;;23.83;21.13
65359;BME280;52491;45.900;6.346;2023-02-04T08:54:33;95163.13;;;23.84;21.54
65359;BME280;52491;45.900;6.346;2023-02-04T08:57:00;95159.41;;;23.85;21.30
65359;BME280;52491;45.900;6.346;2023-02-04T08:59:25;95159.22;;;23.87;21.56
65359;BME280;52491;45.900;6.346;2023-02-04T09:01:51;95155.75;;;23.86;21.58
65359;BME280;52491;45.900;6.346;2023-02-04T09:04:18;95153.28;;;23.85;21.54
65359;BME280;52491;45.900;6.346;2023-02-04T09:06:44;95143.91;;;23.82;21.05
65359;BME280;52491;45.900;6.346;2023-02-04T09:09:10;95147.25;;;23.78;20.57
65359;BME280;52491;45.900;6.346;2023-02-04T09:11:35;95147.13;;;23.73;20.26
65359;BME280;52491;45.900;6.346;2023-02-04T09:14:01;95140.59;;;23.68;20.35
65359;BME280;52491;45.900;6.346;2023-02-04T09:16:27;95142.66;;;23.66;20.14
65359;BME280;52491;45.900;6.346;2023-02-04T09:18:52;95137.56;;;23.65;20.15
65359;BME280;52491;45.900;6.346;2023-02-04T09:21:18;95128.78;;;23.64;20.32
65359;BME280;52491;45.900;6.346;2023-02-04T09:23:43;95137.13;;;23.68;20.52
65359;BME280;52491;45.900;6.346;2023-02-04T09:26:11;95135.66;;;23.72;20.60
65359;BME280;52491;45.900;6.346;2023-02-04T09:28:37;95136.03;;;23.76;20.52
65359;BME280;52491;45.900;6.346;2023-02-04T09:31:03;95132.56;;;23.75;20.30
65359;BME280;52491;45.900;6.346;2023-02-04T09:33:31;95135.22;;;23.75;20.38
65359;BME280;52491;45.900;6.346;2023-02-04T09:35:57;95139.03;;;23.79;20.51
65359;BME280;52491;45.900;6.346;2023-02-04T09:38:23;95142.63;;;23.85;20.55
65359;BME280;52491;45.900;6.346;2023-02-04T09:41:05;95131.06;;;23.91;20.64
65359;BME280;52491;45.900;6.346;2023-02-04T09:43:34;95132.25;;;23.95;20.66
65359;BME280;52491;45.900;6.346;2023-02-04T09:46:01;95130.97;;;23.98;20.57
65359;BME280;52491;45.900;6.346;2023-02-04T09:48:27;95142.19;;;24.00;20.57
65359;BME280;52491;45.900;6.346;2023-02-04T09:51:04;95135.13;;;24.05;20.72
65359;BME280;52491;45.900;6.346;2023-02-04T09:53:31;95133.53;;;24.04;20.64
65359;BME280;52491;45.900;6.346;2023-02-04T09:55:57;95124.25;;;24.07;20.78
65359;BME280;52491;45.900;6.346;2023-02-04T09:58:32;95124.84;;;24.09;20.66
65359;BME280;52491;45.900;6.346;2023-02-04T10:01:04;95127.63;;;24.14;20.88
65359;BME280;52491;45.900;6.346;2023-02-04T10:03:33;95128.19;;;24.16;20.76
65359;BME280;52491;45.900;6.346;2023-02-04T10:05:59;95128.78;;;24.18;20.87
65359;BME280;52491;45.900;6.346;2023-02-04T10:08:28;95139.00;;;24.21;21.07
65359;BME280;52491;45.900;6.346;2023-02-04T10:10:54;95128.91;;;24.23;20.92
65359;BME280;52491;45.900;6.346;2023-02-04T10:13:23;95133.78;;;24.26;20.90
65359;BME280;52491;45.900;6.346;2023-02-04T10:15:51;95134.59;;;24.27;20.84
65359;BME280;52491;45.900;6.346;2023-02-04T10:18:25;95134.59;;;24.27;20.96
65359;BME280;52491;45.900;6.346;2023-02-04T10:21:17;95132.72;;;24.27;20.95
65359;BME280;52491;45.900;6.346;2023-02-04T10:23:43;95127.41;;;24.27;21.25
65359;BME280;52491;45.900;6.346;2023-02-04T10:26:11;95128.00;;;24.29;21.28
65359;BME280;52491;45.900;6.346;2023-02-04T10:28:37;95119.75;;;24.31;21.13
65359;BME280;52491;45.900;6.346;2023-02-04T10:31:05;95124.84;;;24.32;21.25
65359;BME280;52491;45.900;6.346;2023-02-04T10:33:33;95116.66;;;24.34;21.07
65359;BME280;52491;45.900;6.346;2023-02-04T10:36:02;95125.19;;;24.36;20.96
65359;BME280;52491;45.900;6.346;2023-02-04T10:38:29;95115.81;;;24.33;20.88
65359;BME280;52491;45.900;6.346;2023-02-04T10:41:04;95116.66;;;24.34;21.01
65359;BME280;52491;45.900;6.346;2023-02-04T10:43:30;95114.19;;;24.32;20.77
65359;BME280;52491;45.900;6.346;2023-02-04T10:46:03;95113.72;;;24.35;20.97
65359;BME280;52491;45.900;6.346;2023-02-04T10:48:29;95107.94;;;24.39;21.28
65359;BME280;52491;45.900;6.346;2023-02-04T10:51:04;95109.56;;;24.40;21.05
65359;BME280;52491;45.900;6.346;2023-02-04T10:53:29;95105.59;;;24.42;20.96
65359;BME280;52491;45.900;6.346;2023-02-04T10:56:19;95095.34;;;24.46;20.98
65359;BME280;52491;45.900;6.346;2023-02-04T10:58:46;95087.34;;;24.46;21.09
65359;BME280;52491;45.900;6.346;2023-02-04T11:01:14;95091.16;;;24.50;21.10
65359;BME280;52491;45.900;6.346;2023-02-04T11:03:41;95092.22;;;24.49;21.24
65359;BME280;52491;45.900;6.346;2023-02-04T11:06:11;95093.00;;;24.49;21.10
65359;BME280;52491;45.900;6.346;2023-02-04T11:08:37;95091.16;;;24.50;21.13
65359;BME280;52491;45.900;6.346;2023-02-04T11:11:05;95078.41;;;24.52;21.31
65359;BME280;52491;45.900;6.346;2023-02-04T11:18:46;95079.78;;;24.54;21.36
65359;BME280;52491;45.900;6.346;2023-02-04T11:21:22;95068.88;;;24.56;21.51
65359;BME280;52491;45.900;6.346;2023-02-04T11:23:48;95063.78;;;24.54;21.39
65359;BME280;52491;45.900;6.346;2023-02-04T11:26:16;95063.53;;;24.56;21.51
65359;BME280;52491;45.900;6.346;2023-02-04T11:28:48;95062.53;;;24.57;21.41
65359;BME280;52491;45.900;6.346;2023-02-04T11:39:22;95059.13;;;24.62;21.50
65359;BME280;52491;45.900;6.346;2023-02-04T11:41:48;95059.03;;;24.45;20.72
65359;BME280;52491;45.900;6.346;2023-02-04T11:44:15;95053.16;;;24.07;20.89
65359;BME280;52491;45.900;6.346;2023-02-04T11:46:41;95050.56;;;23.77;20.95
65359;BME280;52491;45.900;6.346;2023-02-04T11:49:18;95050.00;;;23.75;21.13
65359;BME280;52491;45.900;6.346;2023-02-04T11:51:45;95051.28;;;23.84;21.24
65359;BME280;52491;45.900;6.346;2023-02-04T11:54:12;95044.09;;;23.97;21.38
65359;BME280;52491;45.900;6.346;2023-02-04T11:56:41;95042.50;;;24.07;21.56
65359;BME280;52491;45.900;6.346;2023-02-04T11:59:09;95041.66;;;24.19;21.36
65359;BME280;52491;45.900;6.346;2023-02-04T12:01:35;95040.72;;;24.25;21.40
65359;BME280;52491;45.900;6.346;2023-02-04T12:04:04;95034.25;;;24.32;21.36
65359;BME280;52491;45.900;6.346;2023-02-04T12:06:34;95029.03;;;24.38;21.28
65359;BME280;52491;45.900;6.346;2023-02-04T12:09:24;95021.16;;;24.43;21.59
65359;BME280;52491;45.900;6.346;2023-02-04T12:11:55;95028.69;;;24.46;21.27
65359;BME280;52491;45.900;6.346;2023-02-04T12:14:21;95024.75;;;24.48;21.41
65359;BME280;52491;45.900;6.346;2023-02-04T12:16:52;95026.16;;;24.51;21.62
65359;BME280;52491;45.900;6.346;2023-02-04T12:19:20;95021.94;;;24.55;21.33
65359;BME280;52491;45.900;6.346;2023-02-04T12:21:46;95019.88;;;24.57;21.70
65359;BME280;52491;45.900;6.346;2023-02-04T12:24:12;95016.94;;;24.59;21.34
65359;BME280;52491;45.900;6.346;2023-02-04T12:26:37;95014.88;;;24.61;21.56
65359;BME280;52491;45.900;6.346;2023-02-04T12:29:03;95011.13;;;24.62;21.65
65359;BME280;52491;45.900;6.346;2023-02-04T12:31:30;95013.38;;;24.65;21.82
65359;BME280;52491;45.900;6.346;2023-02-04T12:33:56;95008.56;;;24.67;21.69
65359;BME280;52491;45.900;6.346;2023-02-04T12:36:22;95004.03;;;24.67;21.53
65359;BME280;52491;45.900;6.346;2023-02-04T12:38:48;95005.44;;;24.70;21.48
65359;BME280;52491;45.900;6.346;2023-02-04T12:41:14;95009.50;;;24.72;21.55
65359;BME280;52491;45.900;6.346;2023-02-04T12:43:39;95009.50;;;24.72;21.49
65359;BME280;52491;45.900;6.346;2023-02-04T12:46:05;95007.41;;;24.74;21.57
65359;BME280;52491;45.900;6.346;2023-02-04T12:48:31;95005.53;;;24.75;21.63
65359;BME280;52491;45.900;6.346;2023-02-04T12:50:56;95005.31;;;24.76;21.70
65359;BME280;52491;45.900;6.346;2023-02-04T12:53:22;94998.13;;;24.77;21.52
65359;BME280;52491;45.900;6.346;2023-02-04T12:55:47;95006.13;;;24.77;21.74
65359;BME280;52491;45.900;6.346;2023-02-04T12:58:13;94997.88;;;24.78;21.92
65359;BME280;52491;45.900;6.346;2023-02-04T13:00:39;95002.97;;;24.80;21.86
65359;BME280;52491;45.900;6.346;2023-02-04T13:03:05;94998.22;;;24.82;21.73
65359;BME280;52491;45.900;6.346;2023-02-04T13:05:31;94999.03;;;24.83;21.80
65359;BME280;52491;45.900;6.346;2023-02-04T13:07:56;94996.94;;;24.85;21.79
65359;BME280;52491;45.900;6.346;2023-02-04T13:10:22;94994.28;;;24.85;21.80